PDT,Max TemperatureF,Mean TemperatureF,Min TemperatureF,Max Dew PointF,MeanDew PointF,Min DewpointF,Max Humidity, Mean Humidity, Min Humidity, Max Sea Level PressureIn, Mean Sea Level PressureIn, Min Sea Level PressureIn, Max VisibilityMiles, Mean VisibilityMiles, Min VisibilityMiles, Max Wind SpeedMPH, Mean Wind SpeedMPH, Max Gust SpeedMPH,PrecipitationIn, CloudCover, Events, WindDirDegrees
2013-10-1,56,53,49,48,45,43,93,80,66,30.10,30.00,29.90,10,10,6,17,9,23,0.26,7,Rain,150
2013-10-2,52,49,45,48,46,43,100,89,77,30.22,30.11,30.06,10,7,0,13,3,16,0.41,8,Fog-Rain,46
2013-10-3,55,47,39,48,43,39,100,86,71,30.49,30.36,30.19,10,3,0,8,1,10,0.00,5,Fog,10
2013-10-4,60,48,35,50,41,35,100,81,62,30.51,30.46,30.38,10,5,0,8,1,9,0.00,3,Fog,295
2013-10-5,66,56,46,52,49,46,96,74,52,30.38,30.29,30.16,10,10,4,10,2,13,0.00,5,,11
2013-10-6,71,56,41,53,44,39,100,67,33,30.15,30.03,29.83,10,5,0,22,6,32,T,1,Fog,161
2013-10-7,59,56,52,52,49,45,89,77,64,29.97,29.91,29.84,10,9,1,20,10,32,0.88,8,Rain,169
2013-10-8,58,51,43,48,44,41,93,75,57,30.12,30.01,29.95,10,9,3,18,4,23,0.15,4,Rain,301
2013-10-9,55,46,36,45,40,36,100,76,51,30.16,30.09,29.98,10,9,2,8,3,13,0.00,2,,172
2013-10-10,55,47,39,47,43,37,93,82,71,30.10,30.02,29.95,10,8,0,10,3,14,0.01,6,Fog,176
2013-10-11,54,44,34,47,39,33,100,86,71,30.17,30.12,30.07,10,5,0,5,0,6,0.00,5,Fog,338
2013-10-12,57,48,39,47,43,37,93,78,62,30.25,30.16,30.08,10,6,0,10,3,15,0.04,4,Fog-Rain,316
2013-10-13,57,48,38,45,40,37,100,79,57,30.40,30.31,30.22,10,4,0,9,2,13,0.00,2,Fog,296
2013-10-14,57,46,34,47,38,33,100,86,71,30.46,30.41,30.37,10,5,0,9,2,13,0.00,1,Fog,324
2013-10-15,59,48,37,49,41,36,100,86,72,30.43,30.34,30.19,10,3,0,8,1,10,0.00,4,Fog,255
2013-10-16,59,52,45,49,46,43,100,86,72,30.23,30.20,30.17,10,4,0,8,2,12,0.00,4,Fog,280
2013-10-17,59,52,44,49,46,43,100,84,67,30.31,30.26,30.22,10,3,0,9,2,13,0.00,5,Fog,327
2013-10-18,59,51,42,48,44,41,100,83,66,30.29,30.24,30.17,10,2,0,8,2,12,0.00,3,Fog,325
2013-10-19,50,46,41,47,43,39,100,93,86,30.24,30.20,30.16,4,1,0,6,1,8,0.00,8,Fog,12
2013-10-20,52,50,47,46,46,45,100,92,83,30.25,30.21,30.17,8,3,0,6,2,8,0.00,8,Fog,336
2013-10-21,53,49,45,48,46,45,100,92,83,30.21,30.17,30.12,5,2,0,7,2,9,0.00,8,Fog,334
2013-10-22,59,51,42,49,45,39,100,86,72,30.17,30.10,30.04,10,2,0,6,1,7,0.00,4,Fog,350
2013-10-23,64,50,35,50,42,35,100,80,60,30.09,30.05,30.01,10,4,0,7,1,10,0.00,1,Fog,348
2013-10-24,54,45,36,48,42,36,100,93,86,30.14,30.06,30.03,10,1,0,13,3,17,0.00,6,Fog,173
2013-10-25,53,50,47,47,46,45,100,89,77,30.36,30.26,30.13,10,6,0,10,2,14,0.00,8,Fog,145
2013-10-26,57,51,45,47,45,44,100,83,66,30.37,30.31,30.21,10,8,4,9,3,12,T,7,Rain,3
2013-10-27,61,55,48,47,44,31,93,66,38,30.17,30.02,29.96,10,8,2,24,10,37,0.05,5,Rain,336
2013-10-28,57,52,46,30,26,24,42,35,28,30.04,29.99,29.94,10,10,10,32,18,44,0.00,0,,18
2013-10-29,53,42,30,37,32,25,92,66,39,30.06,30.02,29.98,10,10,10,13,2,17,0.00,0,,146
2013-10-30,53,43,32,46,39,30,92,76,59,30.14,30.11,30.06,10,10,6,20,4,26,0.09,6,Rain,169
2013-10-31,53,50,47,49,47,43,100,87,74,30.27,30.18,30.06,10,7,2,15,6,18,0.28,8,Rain,157